Flight Track Log - Related Links

Times and Time Zones

All times are in EDT time to prevent confusion due to time zone crossing. See the ASQ5685 flight status page for this flight to view local times or setup timezone preferences in your user account.

Time Position Orientation Groundspeed Altitude Reporting Facility
EDT Latitude Longitude Course Direction KTS MPH feet Rate Location/Type
Mon 11:51:27 AM 33.5833 -84.5667 54° Northeast 249 287 5,600  Level Atlanta TRACON
Mon 11:52:33 AM 33.5167 -84.5833 192° South 268 308 8,300 1,981 Climbing Atlanta TRACON
Mon 11:54:56 AM 33.4556 -84.3625 108° East 312 359 12,500 1,655 Climbing Atlanta Center
Mon 11:55:56 AM 33.4872 -84.2456 72° East 347 399 13,900 1,400 Climbing Atlanta Center
Mon 11:56:00 AM 33.8146 -83.8703 54° Northeast  Level FlightAware Approximate
Mon 11:56:56 AM 33.5564 -84.1436 51° Northeast 363 418 15,300  Level Atlanta Center
Mon 11:57:56 AM 33.6253 -84.0389 52° Northeast 392 451 16,400 1,000 Climbing Atlanta Center
Mon 11:58:56 AM 33.6878 -83.9214 57° Northeast 410 472 17,300 1,100 Climbing Atlanta Center
Mon 11:59:56 AM 33.7356 -83.7964 65° Northeast 405 466 18,600 1,150 Climbing Atlanta Center
Mon 12:00:56 PM 33.8125 -83.6914 49° Northeast 413 475 19,600 800 Climbing Atlanta Center
Mon 12:01:56 PM 33.8811 -83.5883 51° Northeast 420 483 20,200 650 Climbing Atlanta Center
Mon 12:02:56 PM 33.9600 -83.4778 49° Northeast 432 497 20,900 700 Climbing Atlanta Center
Mon 12:03:56 PM 34.0428 -83.3669 48° Northeast 438 504 21,600 700 Climbing Atlanta Center
Mon 12:04:56 PM 34.1214 -83.2508 51° Northeast 438 504 22,300 750 Climbing Atlanta Center
Mon 12:05:56 PM 34.2022 -83.1372 49° Northeast 445 512 23,100 750 Climbing Atlanta Center
Mon 12:06:56 PM 34.2806 -83.0181 51° Northeast 440 506 23,800 600 Climbing Atlanta Center
Mon 12:07:56 PM 34.3544 -82.8989 53° Northeast 451 519 24,300 500 Climbing Atlanta Center
Mon 12:08:56 PM 34.4283 -82.7744 54° Northeast 446 513 24,800 350 Climbing Atlanta Center
Mon 12:09:56 PM 34.5125 -82.6397 53° Northeast 452 520 25,000 100 Climbing Atlanta Center
Mon 12:10:56 PM 34.5903 -82.5122 53° Northeast 458 527 25,000  Level Atlanta Center
Mon 12:11:56 PM 34.6658 -82.3819 55° Northeast 465 535 25,000 150 Level Atlanta Center
Mon 12:12:56 PM 34.7453 -82.2492 54° Northeast 465 535 25,300 500 Climbing Atlanta Center
Mon 12:13:56 PM 34.8228 -82.1183 54° Northeast 471 542 26,000 600 Climbing Atlanta Center
Mon 12:14:56 PM 34.9000 -81.9900 54° Northeast 471 542 26,500 500 Climbing Atlanta Center
Mon 12:15:56 PM 34.9769 -81.8639 53° Northeast 471 542 27,000 250 Climbing Atlanta Center
Mon 12:16:56 PM 35.0517 -81.7247 57° Northeast 471 542 27,000  Level Atlanta Center
Mon 12:17:56 PM 35.1306 -81.5956 53° Northeast 476 548 27,000  Level Atlanta Center
Mon 12:18:56 PM 35.2092 -81.4586 55° Northeast 483 556 27,000  Level Atlanta Center
Mon 12:19:56 PM 35.2856 -81.3214 56° Northeast 483 556 27,000  Level Atlanta Center
Mon 12:20:56 PM 35.3639 -81.1839 55° Northeast 489 563 27,000  Level Atlanta Center
Mon 12:21:56 PM 35.4417 -81.0436 56° Northeast 489 563 27,000  Level Atlanta Center
Mon 12:22:56 PM 35.5281 -80.9103 51° Northeast 498 573 27,000  Level Atlanta Center
Mon 12:23:56 PM 35.6167 -80.7792 50° Northeast 491 565 27,000  Level Atlanta Center
Mon 12:24:56 PM 35.7028 -80.6503 51° Northeast 486 559 27,000  Level Atlanta Center
Mon 12:27:10 PM 35.8961 -80.3611 50° Northeast 497 572 27,000  Level Washington Center
Mon 12:28:10 PM 35.9847 -80.2331 49° Northeast 492 566 27,000  Level Washington Center
Mon 12:29:11 PM 36.0689 -80.1019 52° Northeast 492 566 27,000  Level Washington Center
Mon 12:30:12 PM 36.1592 -79.9783 48° Northeast 485 558 27,000  Level Washington Center
Mon 12:31:10 PM 36.2431 -79.8492 51° Northeast 485 558 27,000  Level Washington Center
Mon 12:32:11 PM 36.3206 -79.7244 52° Northeast 490 564 27,000  Level Washington Center
Mon 12:33:12 PM 36.4131 -79.5822 51° Northeast 490 564 27,000  Level Washington Center
Mon 12:34:12 PM 36.5008 -79.4497 50° Northeast 490 564 27,000  Level Washington Center
Mon 12:35:10 PM 36.5733 -79.3317 53° Northeast 485 558 27,000  Level Washington Center
Mon 12:36:11 PM 36.6589 -79.1986 51° Northeast 485 558 27,000  Level Washington Center
Mon 12:37:10 PM 36.7461 -79.0681 50° Northeast 485 558 27,000  Level Washington Center
Mon 12:38:10 PM 36.8400 -78.9217 51° Northeast 485 558 27,000 -595 Level Washington Center
Mon 12:39:11 PM 36.9272 -78.7878 51° Northeast 485 558 25,800 -992 Descending Washington Center
Mon 12:40:11 PM 37.0142 -78.6483 52° Northeast 485 558 25,000 -397 Descending Washington Center
Mon 12:41:12 PM 37.1044 -78.5397 44° Northeast 490 564 25,000  Level Washington Center
Mon 12:42:10 PM 37.2094 -78.4344 39° Northeast 485 558 25,000  Level Washington Center
Mon 12:43:11 PM 37.3161 -78.3286 38° Northeast 485 558 25,000 -694 Level Washington Center
Mon 12:44:11 PM 37.4269 -78.2203 38° Northeast 485 558 23,600 -1,488 Descending Washington Center
Mon 12:45:12 PM 37.5314 -78.1139 39° Northeast 485 558 22,000 -1,636 Descending Washington Center
Mon 12:46:12 PM 37.6339 -78.0044 40° Northeast 480 552 20,300 -1,932 Descending Washington Center
Mon 12:47:10 PM 37.7403 -77.9000 38° Northeast 480 552 18,200 -2,085 Descending Washington Center
Mon 12:48:10 PM 37.8403 -77.7981 39° Northeast 480 552 16,200 -1,983 Descending Washington Center
Mon 12:49:11 PM 37.9336 -77.7006 39° Northeast 456 525 14,200 -2,000 Descending Washington Center
Mon 12:50:10 PM 38.0228 -77.6108 38° Northeast 427 491 12,200 -1,966 Descending Washington Center
Mon 12:51:10 PM 38.1139 -77.5208 38° Northeast 416 479 10,300 -1,041 Descending Washington Center
Mon 12:52:11 PM 38.2008 -77.4386 37° Northeast 410 472 10,100 -98 Descending Washington Center
Mon 12:53:12 PM 38.3017 -77.3775 25° Northeast 400 460 10,100 -151 Level Washington Center
Mon 12:54:10 PM 38.3981 -77.3586 North 368 423 9,800 -1,271 Descending Washington Center
Mon 12:55:10 PM 38.4875 -77.3636 357° North 331 381 7,600 -2,380 Descending Washington Center
Mon 12:56:11 PM 38.5689 -77.3656 359° North 309 356 5,000 -1,300 Descending Washington Center
Mon 12:57:10 PM 38.6544 -77.3647 360° North 304 350 5,000 -100 Level Washington Center
Mon 12:58:11 PM 38.7378 -77.3614 North 304 350 4,800 -545 Descending Washington Center
Mon 12:59:11 PM 38.8192 -77.3581 North 298 343 3,900 -1,125 Descending Washington Center
Mon 12:59:47 PM 38.8833 -77.3500 North 289 333 3,000 -563 Descending Potomac TRACON
Mon 01:00:47 PM 38.9667 -77.3500 360° North 288 331 3,000  Level Potomac TRACON
Mon 01:01:47 PM 39.0333 -77.3500 360° North 283 326 3,000 -158 Level Potomac TRACON
Mon 01:02:41 PM 39.1000 -77.3500 360° North 229 264 2,700 -263 Descending Potomac TRACON
Mon 01:03:41 PM 39.1333 -77.3833 322° Northwest 202 232 2,500 -350 Descending Potomac TRACON
Mon 01:04:41 PM 39.1333 -77.4500 270° West 184 212 2,000 -267 Descending Potomac TRACON
Mon 01:06:00 PM 38.9713 -77.4587 195° South  Level Estimated
Mon 01:06:41 PM 39.0500 -77.4500 195° South 164 189 1,700  Level Potomac TRACON
Mon 01:07:35 PM 39.0167 -77.4667 201° Southwest 132 152 1,100 -667 Descending Potomac TRACON
Mon 01:08:29 PM 38.9833 -77.4667 180° South 136 157 500 -667 Descending Potomac TRACON
Mon 01:10:00 PM 38.9474 -77.4599 195° South  Level Estimated
Mon 01:17:00 PM 38.9474 -77.4599 195° South  Level Estimated

Login

Don't have an account? Register now (free) for customized features, flight alerts, and more!